sensor_id;sensor_type;location;lat;lon;timestamp;P1;durP1;ratioP1;P2;durP2;ratioP2
66212;SDS011;53015;50.046;8.238;2023-04-25T00:01:15;2.97;;;1.80;;
66212;SDS011;53015;50.046;8.238;2023-04-25T00:03:40;2.40;;;2.10;;
66212;SDS011;53015;50.046;8.238;2023-04-25T00:06:06;3.97;;;2.30;;
66212;SDS011;53015;50.046;8.238;2023-04-25T00:08:32;2.85;;;2.17;;
66212;SDS011;53015;50.046;8.238;2023-04-25T00:10:58;2.25;;;2.05;;
66212;SDS011;53015;50.046;8.238;2023-04-25T00:13:23;3.45;;;2.30;;
66212;SDS011;53015;50.046;8.238;2023-04-25T00:15:50;2.85;;;2.10;;
66212;SDS011;53015;50.046;8.238;2023-04-25T00:18:16;3.30;;;2.22;;
66212;SDS011;53015;50.046;8.238;2023-04-25T00:20:41;3.17;;;2.33;;
66212;SDS011;53015;50.046;8.238;2023-04-25T00:23:07;3.45;;;2.33;;
66212;SDS011;53015;50.046;8.238;2023-04-25T00:25:32;2.90;;;2.20;;
66212;SDS011;53015;50.046;8.238;2023-04-25T00:27:58;5.28;;;2.80;;
66212;SDS011;53015;50.046;8.238;2023-04-25T00:30:23;2.60;;;2.35;;
66212;SDS011;53015;50.046;8.238;2023-04-25T00:32:50;3.90;;;2.60;;
66212;SDS011;53015;50.046;8.238;2023-04-25T00:35:16;3.38;;;2.67;;
66212;SDS011;53015;50.046;8.238;2023-04-25T00:37:41;3.33;;;2.63;;
66212;SDS011;53015;50.046;8.238;2023-04-25T00:40:07;3.42;;;3.05;;
66212;SDS011;53015;50.046;8.238;2023-04-25T00:42:33;3.92;;;2.90;;
66212;SDS011;53015;50.046;8.238;2023-04-25T00:45:00;3.17;;;2.85;;
66212;SDS011;53015;50.046;8.238;2023-04-25T00:47:26;3.22;;;2.67;;
66212;SDS011;53015;50.046;8.238;2023-04-25T00:49:54;4.03;;;3.20;;
66212;SDS011;53015;50.046;8.238;2023-04-25T00:52:19;4.50;;;2.80;;
66212;SDS011;53015;50.046;8.238;2023-04-25T00:54:45;3.38;;;2.95;;
66212;SDS011;53015;50.046;8.238;2023-04-25T00:57:14;3.25;;;2.78;;
66212;SDS011;53015;50.046;8.238;2023-04-25T00:59:39;4.18;;;3.08;;
66212;SDS011;53015;50.046;8.238;2023-04-25T01:02:10;5.30;;;3.35;;
66212;SDS011;53015;50.046;8.238;2023-04-25T01:04:35;4.63;;;3.05;;
66212;SDS011;53015;50.046;8.238;2023-04-25T01:07:02;3.67;;;3.00;;
66212;SDS011;53015;50.046;8.238;2023-04-25T01:09:28;5.10;;;3.10;;
66212;SDS011;53015;50.046;8.238;2023-04-25T01:11:55;8.45;;;3.22;;
66212;SDS011;53015;50.046;8.238;2023-04-25T01:14:21;6.75;;;3.10;;
66212;SDS011;53015;50.046;8.238;2023-04-25T01:16:46;4.10;;;3.10;;
66212;SDS011;53015;50.046;8.238;2023-04-25T01:19:12;4.05;;;2.97;;
66212;SDS011;53015;50.046;8.238;2023-04-25T01:21:43;3.10;;;2.80;;
66212;SDS011;53015;50.046;8.238;2023-04-25T01:24:09;2.50;;;2.28;;
66212;SDS011;53015;50.046;8.238;2023-04-25T01:26:35;2.80;;;2.60;;
66212;SDS011;53015;50.046;8.238;2023-04-25T01:29:01;5.35;;;2.95;;
66212;SDS011;53015;50.046;8.238;2023-04-25T01:31:28;3.72;;;2.90;;
66212;SDS011;53015;50.046;8.238;2023-04-25T01:33:54;4.45;;;3.10;;
66212;SDS011;53015;50.046;8.238;2023-04-25T01:36:20;3.85;;;2.88;;
66212;SDS011;53015;50.046;8.238;2023-04-25T01:38:48;5.35;;;3.05;;
66212;SDS011;53015;50.046;8.238;2023-04-25T01:41:13;6.57;;;3.35;;
66212;SDS011;53015;50.046;8.238;2023-04-25T01:43:39;4.93;;;3.22;;
66212;SDS011;53015;50.046;8.238;2023-04-25T01:46:05;5.15;;;3.35;;
66212;SDS011;53015;50.046;8.238;2023-04-25T01:48:31;6.07;;;3.25;;
66212;SDS011;53015;50.046;8.238;2023-04-25T01:50:56;5.75;;;3.65;;
66212;SDS011;53015;50.046;8.238;2023-04-25T01:53:22;4.35;;;3.42;;
66212;SDS011;53015;50.046;8.238;2023-04-25T01:55:50;6.00;;;3.78;;
66212;SDS011;53015;50.046;8.238;2023-04-25T01:58:15;4.03;;;3.63;;
66212;SDS011;53015;50.046;8.238;2023-04-25T02:00:41;6.05;;;4.10;;
66212;SDS011;53015;50.046;8.238;2023-04-25T02:03:07;4.90;;;3.38;;
66212;SDS011;53015;50.046;8.238;2023-04-25T02:05:36;5.00;;;3.72;;
66212;SDS011;53015;50.046;8.238;2023-04-25T02:08:02;6.00;;;3.80;;
66212;SDS011;53015;50.046;8.238;2023-04-25T02:10:28;5.70;;;3.95;;
66212;SDS011;53015;50.046;8.238;2023-04-25T02:12:55;8.63;;;3.80;;
66212;SDS011;53015;50.046;8.238;2023-04-25T02:15:22;4.85;;;4.03;;
66212;SDS011;53015;50.046;8.238;2023-04-25T02:17:47;6.97;;;3.90;;
66212;SDS011;53015;50.046;8.238;2023-04-25T02:20:13;5.65;;;4.03;;
66212;SDS011;53015;50.046;8.238;2023-04-25T02:22:38;4.95;;;4.10;;
66212;SDS011;53015;50.046;8.238;2023-04-25T02:25:04;6.18;;;4.07;;
66212;SDS011;53015;50.046;8.238;2023-04-25T02:27:31;6.10;;;4.30;;
66212;SDS011;53015;50.046;8.238;2023-04-25T02:29:57;5.90;;;4.25;;
66212;SDS011;53015;50.046;8.238;2023-04-25T02:32:23;5.20;;;4.07;;
66212;SDS011;53015;50.046;8.238;2023-04-25T02:34:49;6.57;;;4.40;;
66212;SDS011;53015;50.046;8.238;2023-04-25T02:37:14;5.47;;;4.57;;
66212;SDS011;53015;50.046;8.238;2023-04-25T02:39:40;5.22;;;4.47;;
66212;SDS011;53015;50.046;8.238;2023-04-25T02:42:05;7.40;;;4.13;;
66212;SDS011;53015;50.046;8.238;2023-04-25T02:44:31;5.82;;;4.47;;
66212;SDS011;53015;50.046;8.238;2023-04-25T02:46:57;10.30;;;4.50;;
66212;SDS011;53015;50.046;8.238;2023-04-25T02:49:23;7.85;;;4.70;;
66212;SDS011;53015;50.046;8.238;2023-04-25T02:51:48;5.57;;;4.40;;
66212;SDS011;53015;50.046;8.238;2023-04-25T02:54:14;11.20;;;5.10;;
66212;SDS011;53015;50.046;8.238;2023-04-25T02:56:39;7.00;;;5.40;;
66212;SDS011;53015;50.046;8.238;2023-04-25T02:59:05;6.13;;;4.75;;
66212;SDS011;53015;50.046;8.238;2023-04-25T03:01:30;11.85;;;5.25;;
66212;SDS011;53015;50.046;8.238;2023-04-25T03:03:57;9.13;;;5.22;;
66212;SDS011;53015;50.046;8.238;2023-04-25T03:06:23;6.13;;;5.05;;
66212;SDS011;53015;50.046;8.238;2023-04-25T03:08:48;12.13;;;5.47;;
66212;SDS011;53015;50.046;8.238;2023-04-25T03:11:14;8.68;;;5.00;;
66212;SDS011;53015;50.046;8.238;2023-04-25T03:13:39;9.65;;;5.57;;
66212;SDS011;53015;50.046;8.238;2023-04-25T03:16:05;7.03;;;5.07;;
66212;SDS011;53015;50.046;8.238;2023-04-25T03:18:30;8.93;;;5.18;;
66212;SDS011;53015;50.046;8.238;2023-04-25T03:20:57;7.55;;;5.22;;
66212;SDS011;53015;50.046;8.238;2023-04-25T03:23:23;9.25;;;5.80;;
66212;SDS011;53015;50.046;8.238;2023-04-25T03:25:49;9.48;;;5.45;;
66212;SDS011;53015;50.046;8.238;2023-04-25T03:28:14;8.25;;;5.30;;
66212;SDS011;53015;50.046;8.238;2023-04-25T03:30:40;8.60;;;5.50;;
66212;SDS011;53015;50.046;8.238;2023-04-25T03:33:05;12.93;;;6.03;;
66212;SDS011;53015;50.046;8.238;2023-04-25T03:35:31;12.20;;;6.03;;
66212;SDS011;53015;50.046;8.238;2023-04-25T03:37:58;8.80;;;5.80;;
66212;SDS011;53015;50.046;8.238;2023-04-25T03:40:23;15.57;;;6.80;;
66212;SDS011;53015;50.046;8.238;2023-04-25T03:42:49;10.68;;;6.68;;
66212;SDS011;53015;50.046;8.238;2023-04-25T03:45:14;10.68;;;6.22;;
66212;SDS011;53015;50.046;8.238;2023-04-25T03:47:40;11.00;;;6.03;;
66212;SDS011;53015;50.046;8.238;2023-04-25T03:50:06;13.50;;;6.13;;
66212;SDS011;53015;50.046;8.238;2023-04-25T03:52:32;10.80;;;6.65;;
66212;SDS011;53015;50.046;8.238;2023-04-25T03:54:58;13.30;;;7.38;;
66212;SDS011;53015;50.046;8.238;2023-04-25T03:57:24;13.05;;;6.35;;
66212;SDS011;53015;50.046;8.238;2023-04-25T03:59:49;11.98;;;6.20;;
66212;SDS011;53015;50.046;8.238;2023-04-25T04:02:15;10.50;;;6.53;;
66212;SDS011;53015;50.046;8.238;2023-04-25T04:04:42;11.95;;;5.65;;
66212;SDS011;53015;50.046;8.238;2023-04-25T04:07:07;8.55;;;4.60;;
66212;SDS011;53015;50.046;8.238;2023-04-25T04:09:34;7.15;;;4.07;;
66212;SDS011;53015;50.046;8.238;2023-04-25T04:12:01;10.30;;;4.60;;
66212;SDS011;53015;50.046;8.238;2023-04-25T04:14:26;12.15;;;4.22;;
66212;SDS011;53015;50.046;8.238;2023-04-25T04:16:51;8.50;;;3.58;;
66212;SDS011;53015;50.046;8.238;2023-04-25T04:19:17;9.15;;;4.30;;
66212;SDS011;53015;50.046;8.238;2023-04-25T04:21:42;8.93;;;4.35;;
66212;SDS011;53015;50.046;8.238;2023-04-25T04:24:08;12.70;;;4.45;;
66212;SDS011;53015;50.046;8.238;2023-04-25T04:26:33;7.95;;;5.07;;
66212;SDS011;53015;50.046;8.238;2023-04-25T04:29:00;13.05;;;4.95;;
66212;SDS011;53015;50.046;8.238;2023-04-25T04:31:26;10.23;;;4.88;;
66212;SDS011;53015;50.046;8.238;2023-04-25T04:33:51;15.35;;;5.88;;
66212;SDS011;53015;50.046;8.238;2023-04-25T04:36:17;11.50;;;4.32;;
66212;SDS011;53015;50.046;8.238;2023-04-25T04:38:42;11.77;;;4.10;;
66212;SDS011;53015;50.046;8.238;2023-04-25T04:41:08;10.30;;;4.40;;
66212;SDS011;53015;50.046;8.238;2023-04-25T04:43:33;13.02;;;4.43;;
66212;SDS011;53015;50.046;8.238;2023-04-25T04:46:01;16.90;;;5.28;;
66212;SDS011;53015;50.046;8.238;2023-04-25T04:48:27;13.55;;;5.10;;
66212;SDS011;53015;50.046;8.238;2023-04-25T04:50:52;9.63;;;4.38;;
66212;SDS011;53015;50.046;8.238;2023-04-25T04:53:18;10.88;;;4.30;;
66212;SDS011;53015;50.046;8.238;2023-04-25T04:55:43;8.70;;;4.18;;
66212;SDS011;53015;50.046;8.238;2023-04-25T04:58:09;13.65;;;4.93;;
66212;SDS011;53015;50.046;8.238;2023-04-25T05:00:34;12.05;;;4.82;;
66212;SDS011;53015;50.046;8.238;2023-04-25T05:03:01;10.40;;;4.78;;
66212;SDS011;53015;50.046;8.238;2023-04-25T05:05:27;10.48;;;4.07;;
66212;SDS011;53015;50.046;8.238;2023-04-25T05:07:52;15.45;;;5.00;;
66212;SDS011;53015;50.046;8.238;2023-04-25T05:10:18;10.35;;;4.30;;
66212;SDS011;53015;50.046;8.238;2023-04-25T05:12:44;15.20;;;4.20;;
66212;SDS011;53015;50.046;8.238;2023-04-25T05:15:09;14.55;;;4.65;;
66212;SDS011;53015;50.046;8.238;2023-04-25T05:17:35;13.80;;;4.05;;
66212;SDS011;53015;50.046;8.238;2023-04-25T05:20:02;11.13;;;4.07;;
66212;SDS011;53015;50.046;8.238;2023-04-25T05:22:28;10.98;;;3.70;;
66212;SDS011;53015;50.046;8.238;2023-04-25T05:24:53;11.15;;;3.60;;
66212;SDS011;53015;50.046;8.238;2023-04-25T05:27:19;11.25;;;3.97;;
66212;SDS011;53015;50.046;8.238;2023-04-25T05:29:44;10.48;;;3.50;;
66212;SDS011;53015;50.046;8.238;2023-04-25T05:32:10;9.55;;;4.00;;
66212;SDS011;53015;50.046;8.238;2023-04-25T05:34:36;11.05;;;3.75;;
66212;SDS011;53015;50.046;8.238;2023-04-25T05:37:03;15.65;;;4.53;;
66212;SDS011;53015;50.046;8.238;2023-04-25T05:39:28;9.05;;;3.72;;
66212;SDS011;53015;50.046;8.238;2023-04-25T05:41:54;10.27;;;3.55;;
66212;SDS011;53015;50.046;8.238;2023-04-25T05:44:19;9.85;;;3.88;;
66212;SDS011;53015;50.046;8.238;2023-04-25T05:46:45;11.07;;;3.92;;
66212;SDS011;53015;50.046;8.238;2023-04-25T05:49:11;9.75;;;3.83;;
66212;SDS011;53015;50.046;8.238;2023-04-25T05:51:37;10.98;;;3.63;;
66212;SDS011;53015;50.046;8.238;2023-04-25T05:54:04;11.05;;;3.17;;
66212;SDS011;53015;50.046;8.238;2023-04-25T05:56:29;8.52;;;3.28;;
66212;SDS011;53015;50.046;8.238;2023-04-25T05:58:55;8.93;;;3.25;;
66212;SDS011;53015;50.046;8.238;2023-04-25T06:01:21;9.88;;;3.35;;
66212;SDS011;53015;50.046;8.238;2023-04-25T06:03:47;10.38;;;3.75;;
66212;SDS011;53015;50.046;8.238;2023-04-25T06:06:12;9.63;;;3.33;;
66212;SDS011;53015;50.046;8.238;2023-04-25T06:08:38;9.68;;;3.45;;
66212;SDS011;53015;50.046;8.238;2023-04-25T06:11:04;8.88;;;3.60;;
66212;SDS011;53015;50.046;8.238;2023-04-25T06:13:30;8.80;;;2.85;;
66212;SDS011;53015;50.046;8.238;2023-04-25T06:15:55;8.98;;;4.20;;
66212;SDS011;53015;50.046;8.238;2023-04-25T06:18:21;11.30;;;3.20;;
66212;SDS011;53015;50.046;8.238;2023-04-25T06:20:46;11.20;;;3.60;;
66212;SDS011;53015;50.046;8.238;2023-04-25T06:23:12;11.45;;;3.88;;
66212;SDS011;53015;50.046;8.238;2023-04-25T06:25:37;8.55;;;3.45;;
66212;SDS011;53015;50.046;8.238;2023-04-25T06:28:04;9.55;;;3.90;;
66212;SDS011;53015;50.046;8.238;2023-04-25T06:30:30;10.55;;;4.15;;
66212;SDS011;53015;50.046;8.238;2023-04-25T06:32:55;11.30;;;3.60;;
66212;SDS011;53015;50.046;8.238;2023-04-25T06:35:21;8.70;;;3.47;;
66212;SDS011;53015;50.046;8.238;2023-04-25T06:37:46;9.60;;;3.42;;
66212;SDS011;53015;50.046;8.238;2023-04-25T06:40:12;6.80;;;3.30;;
66212;SDS011;53015;50.046;8.238;2023-04-25T06:42:38;9.00;;;3.30;;
66212;SDS011;53015;50.046;8.238;2023-04-25T06:45:05;9.02;;;3.78;;
66212;SDS011;53015;50.046;8.238;2023-04-25T06:47:31;10.13;;;3.80;;
66212;SDS011;53015;50.046;8.238;2023-04-25T06:49:57;8.15;;;3.80;;
66212;SDS011;53015;50.046;8.238;2023-04-25T06:52:22;9.35;;;3.38;;
66212;SDS011;53015;50.046;8.238;2023-04-25T06:54:47;8.90;;;3.35;;
66212;SDS011;53015;50.046;8.238;2023-04-25T06:57:13;8.20;;;3.67;;
66212;SDS011;53015;50.046;8.238;2023-04-25T06:59:38;10.60;;;3.30;;
66212;SDS011;53015;50.046;8.238;2023-04-25T07:02:05;7.03;;;2.85;;
66212;SDS011;53015;50.046;8.238;2023-04-25T07:04:31;7.53;;;3.28;;
66212;SDS011;53015;50.046;8.238;2023-04-25T07:06:56;7.40;;;3.45;;
66212;SDS011;53015;50.046;8.238;2023-04-25T07:09:22;9.02;;;3.60;;
66212;SDS011;53015;50.046;8.238;2023-04-25T07:11:47;9.48;;;3.33;;
66212;SDS011;53015;50.046;8.238;2023-04-25T07:14:13;11.15;;;3.83;;
66212;SDS011;53015;50.046;8.238;2023-04-25T07:16:38;5.57;;;1.83;;
66212;SDS011;53015;50.046;8.238;2023-04-25T07:19:05;9.75;;;2.58;;
66212;SDS011;53015;50.046;8.238;2023-04-25T07:21:31;7.60;;;2.58;;
66212;SDS011;53015;50.046;8.238;2023-04-25T07:23:57;6.00;;;1.60;;
66212;SDS011;53015;50.046;8.238;2023-04-25T07:26:22;5.93;;;1.98;;
66212;SDS011;53015;50.046;8.238;2023-04-25T07:28:47;4.40;;;1.75;;
66212;SDS011;53015;50.046;8.238;2023-04-25T07:31:13;5.93;;;2.47;;
66212;SDS011;53015;50.046;8.238;2023-04-25T07:33:39;7.15;;;2.10;;
66212;SDS011;53015;50.046;8.238;2023-04-25T07:36:06;5.15;;;1.95;;
66212;SDS011;53015;50.046;8.238;2023-04-25T07:38:32;4.22;;;1.60;;
66212;SDS011;53015;50.046;8.238;2023-04-25T07:40:58;4.97;;;1.67;;
66212;SDS011;53015;50.046;8.238;2023-04-25T07:43:23;5.20;;;1.83;;
66212;SDS011;53015;50.046;8.238;2023-04-25T07:45:49;4.55;;;1.60;;
66212;SDS011;53015;50.046;8.238;2023-04-25T07:48:16;5.07;;;1.70;;
66212;SDS011;53015;50.046;8.238;2023-04-25T07:50:42;8.00;;;1.80;;
66212;SDS011;53015;50.046;8.238;2023-04-25T07:53:09;6.50;;;1.48;;
66212;SDS011;53015;50.046;8.238;2023-04-25T07:55:34;5.93;;;1.50;;
66212;SDS011;53015;50.046;8.238;2023-04-25T07:58:00;3.42;;;1.20;;
66212;SDS011;53015;50.046;8.238;2023-04-25T08:00:25;6.85;;;1.25;;
66212;SDS011;53015;50.046;8.238;2023-04-25T08:02:51;3.28;;;1.48;;
66212;SDS011;53015;50.046;8.238;2023-04-25T08:05:16;3.13;;;1.08;;
66212;SDS011;53015;50.046;8.238;2023-04-25T08:07:42;2.42;;;1.20;;
66212;SDS011;53015;50.046;8.238;2023-04-25T08:10:09;4.82;;;1.25;;
66212;SDS011;53015;50.046;8.238;2023-04-25T08:12:35;4.18;;;1.30;;
66212;SDS011;53015;50.046;8.238;2023-04-25T08:15:00;4.05;;;1.30;;
66212;SDS011;53015;50.046;8.238;2023-04-25T08:17:26;5.63;;;1.05;;
66212;SDS011;53015;50.046;8.238;2023-04-25T08:19:51;5.20;;;1.48;;
66212;SDS011;53015;50.046;8.238;2023-04-25T08:22:17;3.42;;;1.30;;
66212;SDS011;53015;50.046;8.238;2023-04-25T08:24:42;5.63;;;1.23;;
66212;SDS011;53015;50.046;8.238;2023-04-25T08:27:09;5.80;;;1.40;;
66212;SDS011;53015;50.046;8.238;2023-04-25T08:29:35;2.88;;;1.27;;
66212;SDS011;53015;50.046;8.238;2023-04-25T08:32:00;5.78;;;1.70;;
66212;SDS011;53015;50.046;8.238;2023-04-25T08:34:26;5.22;;;1.80;;
66212;SDS011;53015;50.046;8.238;2023-04-25T08:36:51;4.93;;;1.67;;
66212;SDS011;53015;50.046;8.238;2023-04-25T08:39:17;5.55;;;1.75;;
66212;SDS011;53015;50.046;8.238;2023-04-25T08:41:43;3.95;;;1.40;;
66212;SDS011;53015;50.046;8.238;2023-04-25T08:44:10;3.88;;;1.70;;
66212;SDS011;53015;50.046;8.238;2023-04-25T08:46:37;5.88;;;1.38;;
66212;SDS011;53015;50.046;8.238;2023-04-25T08:49:03;5.28;;;2.20;;
66212;SDS011;53015;50.046;8.238;2023-04-25T08:51:30;3.72;;;1.83;;
66212;SDS011;53015;50.046;8.238;2023-04-25T08:53:56;4.97;;;1.75;;
66212;SDS011;53015;50.046;8.238;2023-04-25T08:56:33;7.40;;;2.40;;
66212;SDS011;53015;50.046;8.238;2023-04-25T08:58:59;4.80;;;2.00;;
66212;SDS011;53015;50.046;8.238;2023-04-25T09:01:26;6.25;;;2.20;;
66212;SDS011;53015;50.046;8.238;2023-04-25T09:03:51;4.60;;;2.35;;
66212;SDS011;53015;50.046;8.238;2023-04-25T09:06:17;4.93;;;2.00;;
66212;SDS011;53015;50.046;8.238;2023-04-25T09:08:44;2.97;;;1.70;;
66212;SDS011;53015;50.046;8.238;2023-04-25T09:11:09;4.18;;;1.70;;
66212;SDS011;53015;50.046;8.238;2023-04-25T09:13:35;5.45;;;2.00;;
66212;SDS011;53015;50.046;8.238;2023-04-25T09:16:00;5.05;;;1.90;;
66212;SDS011;53015;50.046;8.238;2023-04-25T09:18:28;8.30;;;2.10;;
66212;SDS011;53015;50.046;8.238;2023-04-25T09:20:55;5.32;;;2.10;;
66212;SDS011;53015;50.046;8.238;2023-04-25T09:23:22;5.22;;;2.35;;
66212;SDS011;53015;50.046;8.238;2023-04-25T09:25:48;6.60;;;2.50;;
66212;SDS011;53015;50.046;8.238;2023-04-25T09:28:14;4.93;;;2.45;;
66212;SDS011;53015;50.046;8.238;2023-04-25T09:30:40;9.82;;;2.50;;
66212;SDS011;53015;50.046;8.238;2023-04-25T09:33:05;8.60;;;2.42;;
66212;SDS011;53015;50.046;8.238;2023-04-25T09:35:36;6.97;;;2.83;;
66212;SDS011;53015;50.046;8.238;2023-04-25T09:38:06;5.70;;;2.22;;
66212;SDS011;53015;50.046;8.238;2023-04-25T09:40:32;4.70;;;2.70;;
66212;SDS011;53015;50.046;8.238;2023-04-25T09:42:58;5.90;;;1.92;;
66212;SDS011;53015;50.046;8.238;2023-04-25T09:45:23;7.30;;;3.13;;
66212;SDS011;53015;50.046;8.238;2023-04-25T09:47:49;4.65;;;2.58;;
66212;SDS011;53015;50.046;8.238;2023-04-25T09:50:14;4.45;;;2.50;;
66212;SDS011;53015;50.046;8.238;2023-04-25T09:52:42;7.53;;;3.08;;
66212;SDS011;53015;50.046;8.238;2023-04-25T09:55:08;6.05;;;3.17;;
66212;SDS011;53015;50.046;8.238;2023-04-25T09:57:33;4.80;;;2.90;;
66212;SDS011;53015;50.046;8.238;2023-04-25T10:00:00;8.10;;;2.75;;
66212;SDS011;53015;50.046;8.238;2023-04-25T10:02:27;7.05;;;3.30;;
66212;SDS011;53015;50.046;8.238;2023-04-25T10:04:53;9.40;;;3.55;;
66212;SDS011;53015;50.046;8.238;2023-04-25T10:07:19;8.05;;;2.85;;
66212;SDS011;53015;50.046;8.238;2023-04-25T10:09:47;5.43;;;2.70;;
66212;SDS011;53015;50.046;8.238;2023-04-25T10:12:14;6.20;;;3.00;;
66212;SDS011;53015;50.046;8.238;2023-04-25T10:14:39;7.90;;;2.80;;
66212;SDS011;53015;50.046;8.238;2023-04-25T10:17:06;6.97;;;3.00;;
66212;SDS011;53015;50.046;8.238;2023-04-25T10:19:32;8.55;;;2.78;;
66212;SDS011;53015;50.046;8.238;2023-04-25T10:22:02;10.20;;;2.85;;
66212;SDS011;53015;50.046;8.238;2023-04-25T10:24:30;3.92;;;2.30;;
66212;SDS011;53015;50.046;8.238;2023-04-25T10:26:57;9.48;;;2.90;;
66212;SDS011;53015;50.046;8.238;2023-04-25T10:29:24;7.03;;;1.90;;
66212;SDS011;53015;50.046;8.238;2023-04-25T10:31:50;5.55;;;2.33;;
66212;SDS011;53015;50.046;8.238;2023-04-25T10:34:16;4.72;;;2.22;;
66212;SDS011;53015;50.046;8.238;2023-04-25T10:36:41;9.43;;;2.55;;
66212;SDS011;53015;50.046;8.238;2023-04-25T10:39:07;8.10;;;2.40;;
66212;SDS011;53015;50.046;8.238;2023-04-25T10:41:33;8.93;;;2.10;;
66212;SDS011;53015;50.046;8.238;2023-04-25T10:44:12;5.25;;;2.42;;
66212;SDS011;53015;50.046;8.238;2023-04-25T10:46:38;5.95;;;1.90;;
66212;SDS011;53015;50.046;8.238;2023-04-25T10:49:04;7.18;;;2.22;;
66212;SDS011;53015;50.046;8.238;2023-04-25T10:51:30;5.57;;;2.25;;
66212;SDS011;53015;50.046;8.238;2023-04-25T10:53:57;6.43;;;1.77;;
66212;SDS011;53015;50.046;8.238;2023-04-25T10:56:25;6.95;;;1.92;;
66212;SDS011;53015;50.046;8.238;2023-04-25T10:58:51;4.32;;;2.03;;
66212;SDS011;53015;50.046;8.238;2023-04-25T11:01:20;13.02;;;2.95;;
66212;SDS011;53015;50.046;8.238;2023-04-25T11:03:49;6.63;;;2.22;;
66212;SDS011;53015;50.046;8.238;2023-04-25T11:06:23;6.35;;;1.90;;
66212;SDS011;53015;50.046;8.238;2023-04-25T11:08:54;6.53;;;1.75;;
66212;SDS011;53015;50.046;8.238;2023-04-25T11:11:19;6.30;;;2.10;;
66212;SDS011;53015;50.046;8.238;2023-04-25T11:13:47;9.02;;;2.30;;
66212;SDS011;53015;50.046;8.238;2023-04-25T11:16:13;5.65;;;1.92;;
66212;SDS011;53015;50.046;8.238;2023-04-25T11:18:42;8.35;;;2.42;;
66212;SDS011;53015;50.046;8.238;2023-04-25T11:21:08;8.68;;;1.85;;
66212;SDS011;53015;50.046;8.238;2023-04-25T11:23:33;8.77;;;2.22;;
66212;SDS011;53015;50.046;8.238;2023-04-25T11:25:59;4.88;;;1.98;;
66212;SDS011;53015;50.046;8.238;2023-04-25T11:28:25;8.48;;;1.65;;
66212;SDS011;53015;50.046;8.238;2023-04-25T11:30:51;7.43;;;1.80;;
66212;SDS011;53015;50.046;8.238;2023-04-25T11:33:16;7.65;;;2.05;;
66212;SDS011;53015;50.046;8.238;2023-04-25T11:35:43;7.13;;;1.90;;
66212;SDS011;53015;50.046;8.238;2023-04-25T11:38:09;6.70;;;1.70;;
66212;SDS011;53015;50.046;8.238;2023-04-25T11:40:35;7.50;;;1.63;;
66212;SDS011;53015;50.046;8.238;2023-04-25T11:43:01;6.35;;;2.13;;
66212;SDS011;53015;50.046;8.238;2023-04-25T11:45:26;4.07;;;1.52;;
66212;SDS011;53015;50.046;8.238;2023-04-25T11:47:53;7.15;;;1.60;;
66212;SDS011;53015;50.046;8.238;2023-04-25T11:50:19;5.65;;;1.92;;
66212;SDS011;53015;50.046;8.238;2023-04-25T11:52:46;7.22;;;2.05;;
66212;SDS011;53015;50.046;8.238;2023-04-25T11:55:13;3.65;;;1.58;;
66212;SDS011;53015;50.046;8.238;2023-04-25T11:57:39;8.23;;;2.03;;
66212;SDS011;53015;50.046;8.238;2023-04-25T12:00:09;6.90;;;1.90;;
66212;SDS011;53015;50.046;8.238;2023-04-25T12:02:37;5.55;;;1.67;;
66212;SDS011;53015;50.046;8.238;2023-04-25T12:05:06;6.00;;;1.80;;
66212;SDS011;53015;50.046;8.238;2023-04-25T12:07:31;10.80;;;2.00;;
66212;SDS011;53015;50.046;8.238;2023-04-25T12:09:58;7.85;;;1.60;;
66212;SDS011;53015;50.046;8.238;2023-04-25T12:12:27;5.53;;;2.20;;
66212;SDS011;53015;50.046;8.238;2023-04-25T12:14:52;4.80;;;1.83;;
66212;SDS011;53015;50.046;8.238;2023-04-25T12:17:18;10.18;;;1.90;;
66212;SDS011;53015;50.046;8.238;2023-04-25T12:19:43;7.38;;;1.83;;
66212;SDS011;53015;50.046;8.238;2023-04-25T12:22:21;6.47;;;2.38;;
66212;SDS011;53015;50.046;8.238;2023-04-25T12:24:48;4.25;;;1.63;;
66212;SDS011;53015;50.046;8.238;2023-04-25T12:27:15;4.93;;;1.52;;
66212;SDS011;53015;50.046;8.238;2023-04-25T12:29:49;5.75;;;1.73;;
66212;SDS011;53015;50.046;8.238;2023-04-25T12:32:16;5.47;;;1.60;;
66212;SDS011;53015;50.046;8.238;2023-04-25T12:34:41;7.25;;;1.80;;
66212;SDS011;53015;50.046;8.238;2023-04-25T12:37:07;9.07;;;1.63;;
66212;SDS011;53015;50.046;8.238;2023-04-25T12:39:32;6.03;;;1.95;;
66212;SDS011;53015;50.046;8.238;2023-04-25T12:41:58;8.00;;;2.05;;
66212;SDS011;53015;50.046;8.238;2023-04-25T12:44:25;5.68;;;1.58;;
66212;SDS011;53015;50.046;8.238;2023-04-25T12:46:50;6.10;;;2.00;;
66212;SDS011;53015;50.046;8.238;2023-04-25T12:49:16;6.68;;;2.22;;
66212;SDS011;53015;50.046;8.238;2023-04-25T12:51:41;9.10;;;1.75;;
66212;SDS011;53015;50.046;8.238;2023-04-25T12:54:07;8.95;;;1.90;;
66212;SDS011;53015;50.046;8.238;2023-04-25T12:56:33;6.43;;;1.27;;
66212;SDS011;53015;50.046;8.238;2023-04-25T12:58:59;5.32;;;1.17;;
66212;SDS011;53015;50.046;8.238;2023-04-25T13:01:26;7.35;;;1.45;;
66212;SDS011;53015;50.046;8.238;2023-04-25T13:03:52;6.32;;;1.85;;
66212;SDS011;53015;50.046;8.238;2023-04-25T13:06:17;3.60;;;1.75;;
66212;SDS011;53015;50.046;8.238;2023-04-25T13:08:44;4.57;;;1.33;;
66212;SDS011;53015;50.046;8.238;2023-04-25T13:11:09;7.80;;;1.80;;
66212;SDS011;53015;50.046;8.238;2023-04-25T13:13:35;6.80;;;1.63;;
66212;SDS011;53015;50.046;8.238;2023-04-25T13:16:00;2.85;;;1.40;;
66212;SDS011;53015;50.046;8.238;2023-04-25T13:18:27;4.70;;;1.60;;
66212;SDS011;53015;50.046;8.238;2023-04-25T13:20:53;3.42;;;1.75;;
66212;SDS011;53015;50.046;8.238;2023-04-25T13:23:19;7.70;;;1.60;;
66212;SDS011;53015;50.046;8.238;2023-04-25T13:25:44;4.32;;;1.50;;
66212;SDS011;53015;50.046;8.238;2023-04-25T13:28:10;4.30;;;1.38;;
66212;SDS011;53015;50.046;8.238;2023-04-25T13:30:35;6.15;;;2.22;;
66212;SDS011;53015;50.046;8.238;2023-04-25T13:33:01;4.45;;;1.60;;
66212;SDS011;53015;50.046;8.238;2023-04-25T13:35:28;8.15;;;1.60;;
66212;SDS011;53015;50.046;8.238;2023-04-25T13:37:54;7.72;;;1.83;;
66212;SDS011;53015;50.046;8.238;2023-04-25T13:40:20;4.25;;;1.55;;
66212;SDS011;53015;50.046;8.238;2023-04-25T13:42:46;4.63;;;1.30;;
66212;SDS011;53015;50.046;8.238;2023-04-25T13:45:11;6.72;;;1.50;;
66212;SDS011;53015;50.046;8.238;2023-04-25T13:47:36;8.20;;;1.77;;
66212;SDS011;53015;50.046;8.238;2023-04-25T13:50:02;5.63;;;1.40;;
66212;SDS011;53015;50.046;8.238;2023-04-25T13:52:30;8.60;;;1.63;;
66212;SDS011;53015;50.046;8.238;2023-04-25T13:54:55;6.18;;;1.63;;
66212;SDS011;53015;50.046;8.238;2023-04-25T13:57:21;3.13;;;1.48;;
66212;SDS011;53015;50.046;8.238;2023-04-25T13:59:46;5.68;;;1.50;;
66212;SDS011;53015;50.046;8.238;2023-04-25T14:02:12;2.38;;;1.10;;
66212;SDS011;53015;50.046;8.238;2023-04-25T14:04:38;4.93;;;1.60;;
66212;SDS011;53015;50.046;8.238;2023-04-25T14:07:03;9.18;;;1.80;;
66212;SDS011;53015;50.046;8.238;2023-04-25T14:09:30;2.20;;;1.40;;
66212;SDS011;53015;50.046;8.238;2023-04-25T14:11:56;6.60;;;2.10;;
66212;SDS011;53015;50.046;8.238;2023-04-25T14:14:21;4.47;;;1.48;;
66212;SDS011;53015;50.046;8.238;2023-04-25T14:16:47;6.88;;;1.60;;
66212;SDS011;53015;50.046;8.238;2023-04-25T14:19:13;3.53;;;1.50;;
66212;SDS011;53015;50.046;8.238;2023-04-25T14:21:39;6.18;;;1.52;;
66212;SDS011;53015;50.046;8.238;2023-04-25T14:24:05;4.43;;;1.50;;
66212;SDS011;53015;50.046;8.238;2023-04-25T14:26:32;10.48;;;1.67;;
66212;SDS011;53015;50.046;8.238;2023-04-25T14:28:58;7.05;;;1.45;;
66212;SDS011;53015;50.046;8.238;2023-04-25T14:31:24;6.05;;;1.80;;
66212;SDS011;53015;50.046;8.238;2023-04-25T14:33:49;8.18;;;1.63;;
66212;SDS011;53015;50.046;8.238;2023-04-25T14:36:15;6.72;;;1.73;;
66212;SDS011;53015;50.046;8.238;2023-04-25T14:38:40;7.85;;;1.75;;